createdAt,value
2019-02-17T05:53:25.642Z,3
2019-02-17T05:59:26.027Z,7
2019-02-17T06:02:26.245Z,10
2019-02-17T06:04:26.376Z,13
2019-02-17T06:05:56.494Z,17
2019-02-17T06:06:56.541Z,20
2019-02-17T06:07:56.588Z,23
2019-02-17T06:08:56.615Z,27
2019-02-17T06:09:26.688Z,30
2019-02-17T06:09:56.686Z,33
2019-02-17T06:10:26.734Z,37
2019-02-17T06:10:56.791Z,40
2019-02-17T06:11:26.790Z,43
2019-02-17T06:11:56.802Z,47
2019-02-17T06:12:26.915Z,50
2019-02-17T06:12:56.884Z,53
2019-02-17T06:13:26.922Z,60
2019-02-17T06:13:56.937Z,63
2019-02-17T06:14:27.004Z,70
2019-02-17T06:14:57.054Z,77
2019-02-17T06:15:27.057Z,83
2019-02-17T06:15:57.115Z,90
2019-02-17T06:16:27.078Z,97
2019-02-17T06:16:57.119Z,103
2019-02-17T06:17:27.397Z,113
2019-02-17T06:17:57.184Z,123
2019-02-17T06:18:27.243Z,130
2019-02-17T06:18:57.258Z,140
2019-02-17T06:19:27.294Z,150
2019-02-17T06:19:57.974Z,160
2019-02-17T06:20:27.384Z,170
2019-02-17T06:20:57.410Z,180
2019-02-17T06:21:27.414Z,193
2019-02-17T06:21:57.473Z,203
2019-02-17T06:22:27.483Z,213
2019-02-17T06:22:57.503Z,227
2019-02-17T06:23:27.510Z,237
2019-02-17T06:23:57.556Z,250
2019-02-17T06:24:27.604Z,263
2019-02-17T06:24:57.695Z,280
2019-02-17T06:25:27.608Z,293
2019-02-17T06:25:57.761Z,310
2019-02-17T06:26:27.691Z,327
2019-02-17T06:26:57.704Z,343
2019-02-17T06:27:27.795Z,360
2019-02-17T06:27:57.781Z,377
2019-02-17T06:28:27.853Z,397
2019-02-17T06:28:57.860Z,417
2019-02-17T06:29:27.870Z,433
2019-02-17T06:29:57.972Z,453
2019-02-17T06:30:28.174Z,477
2019-02-17T06:30:58.003Z,500
2019-02-17T06:31:28.103Z,523
2019-02-17T06:31:58.059Z,547
2019-02-17T06:32:28.046Z,573
2019-02-17T06:32:58.066Z,603
2019-02-17T06:33:28.161Z,630
2019-02-17T06:33:58.131Z,657
2019-02-17T06:34:28.222Z,687
2019-02-17T06:34:58.264Z,720
2019-02-17T06:35:28.230Z,753
2019-02-17T06:35:58.329Z,787
2019-02-17T06:36:28.335Z,820
2019-02-17T06:36:58.350Z,853
2019-02-17T06:37:28.367Z,887
2019-02-17T06:37:58.442Z,920
2019-02-17T06:38:28.438Z,957
2019-02-17T06:38:58.484Z,990
2019-02-17T06:39:28.510Z,1027
2019-02-17T06:39:58.540Z,1060
2019-02-17T06:40:28.532Z,1090
2019-02-17T06:40:58.596Z,1127
2019-02-17T06:41:28.638Z,1160
2019-02-17T06:41:58.664Z,1193
2019-02-17T06:42:28.703Z,1227
2019-02-17T06:42:58.744Z,1260
2019-02-17T06:43:28.719Z,1290
2019-02-17T06:43:58.768Z,1323
2019-02-17T06:44:28.788Z,1360
2019-02-17T06:44:58.817Z,1397
2019-02-17T06:45:28.840Z,1433
2019-02-17T06:45:58.935Z,1470
2019-02-17T06:46:28.899Z,1507
2019-02-17T06:46:58.944Z,1547
2019-02-17T06:47:28.969Z,1590
2019-02-17T06:47:59.057Z,1630
2019-02-17T06:48:29.059Z,1670
2019-02-17T06:48:59.106Z,1707
2019-02-17T06:49:29.165Z,1743
2019-02-17T06:49:59.164Z,1780
2019-02-17T06:50:29.208Z,1817
2019-02-17T06:50:59.252Z,1857
2019-02-17T06:51:29.270Z,1893
2019-02-17T06:51:59.276Z,1930
2019-02-17T06:52:29.292Z,1970
2019-02-17T06:52:59.359Z,2013
2019-02-17T06:53:29.373Z,2057
2019-02-17T06:53:59.415Z,2100
2019-02-17T06:54:29.456Z,2143
2019-02-17T06:54:59.471Z,2187
2019-02-17T06:55:29.488Z,2227
2019-02-17T06:55:59.606Z,2270
2019-02-17T06:56:29.539Z,2310
2019-02-17T06:56:59.581Z,2347
2019-02-17T06:57:29.595Z,2383
2019-02-17T06:57:59.647Z,2420
2019-02-17T06:58:29.635Z,2453
2019-02-17T06:58:59.761Z,2490
2019-02-17T06:59:29.745Z,2527
2019-02-17T06:59:59.794Z,2560
2019-02-17T07:00:29.841Z,2603
2019-02-17T07:00:59.870Z,2650
2019-02-17T07:01:29.884Z,2697
2019-02-17T07:01:59.907Z,2743
2019-02-17T07:02:29.944Z,2783
2019-02-17T07:02:59.964Z,2823
2019-02-17T07:03:30.051Z,2870
2019-02-17T07:04:00.023Z,2913
2019-02-17T07:04:30.097Z,2957
2019-02-17T07:05:00.198Z,2997
2019-02-17T07:05:30.122Z,3047
2019-02-17T07:06:00.172Z,3097
2019-02-17T07:06:30.128Z,3143
2019-02-17T07:07:00.229Z,3190
2019-02-17T07:07:30.311Z,3237
2019-02-17T07:08:01.233Z,3290
2019-02-17T07:08:30.349Z,3347
2019-02-17T07:09:00.982Z,3407
2019-02-17T07:09:30.358Z,3463
2019-02-17T07:10:01.956Z,3527
2019-02-17T07:10:30.453Z,3593
2019-02-17T07:11:00.792Z,3660
2019-02-17T07:11:30.509Z,3730
2019-02-17T07:12:00.807Z,3807
2019-02-17T07:12:30.562Z,3877
2019-02-17T07:13:01.395Z,3947
2019-02-17T07:13:30.635Z,4020
2019-02-17T07:14:00.991Z,4093
2019-02-17T07:14:30.651Z,4170
2019-02-17T07:15:01.471Z,4253
2019-02-17T07:15:30.746Z,4333
2019-02-17T07:16:01.392Z,4417
2019-02-17T07:16:30.822Z,4493
2019-02-17T07:17:01.154Z,4570
2019-02-17T07:17:30.859Z,4647
2019-02-17T07:18:01.042Z,4710
2019-02-17T07:18:30.920Z,4777
2019-02-17T07:19:01.241Z,4843
2019-02-17T07:19:30.965Z,4907
2019-02-17T07:20:01.014Z,4963
2019-02-17T07:20:31.078Z,5023
2019-02-17T07:21:01.119Z,5073
2019-02-17T07:21:31.107Z,5120
2019-02-17T07:22:01.215Z,5177
2019-02-17T07:22:31.157Z,5237
2019-02-17T07:23:01.163Z,5293
2019-02-17T07:23:31.205Z,5337
2019-02-17T07:24:01.277Z,5383
2019-02-17T07:24:31.269Z,5423
2019-02-17T07:25:01.318Z,5467
2019-02-17T07:25:31.352Z,5510
2019-02-17T07:26:01.342Z,5547
2019-02-17T07:26:31.386Z,5577
2019-02-17T07:27:01.591Z,5610
2019-02-17T07:27:31.425Z,5647
2019-02-17T07:28:01.463Z,5683
2019-02-17T07:28:31.525Z,5720
2019-02-17T07:29:01.588Z,5753
2019-02-17T07:29:31.582Z,5787
2019-02-17T07:30:01.697Z,5830
2019-02-17T07:30:31.610Z,5877
2019-02-17T07:31:01.978Z,5933
2019-02-17T07:31:34.783Z,5977
2019-02-17T07:32:01.779Z,6013
2019-02-17T07:32:31.748Z,6040
2019-02-17T07:33:01.870Z,6057
2019-02-17T07:33:31.817Z,6070
2019-02-17T07:34:01.828Z,6073
2019-02-17T07:34:31.878Z,6080
2019-02-17T07:35:01.880Z,6090
2019-02-17T07:35:31.911Z,6097
2019-02-17T07:36:01.976Z,6113
2019-02-17T07:36:31.978Z,6137
2019-02-17T07:37:02.139Z,6167
2019-02-17T07:37:33.629Z,6207
2019-02-17T07:38:02.115Z,6257
2019-02-17T07:38:32.147Z,6317
2019-02-17T07:39:02.135Z,6540
2019-02-17T07:39:32.248Z,6757
2019-02-17T07:40:02.194Z,6840
2019-02-17T07:40:32.245Z,6967
2019-02-17T07:41:02.276Z,7030
2019-02-17T07:41:32.337Z,7133
2019-02-17T07:42:02.984Z,7467
2019-02-17T07:42:32.380Z,7773
2019-02-17T07:43:02.377Z,7997
2019-02-17T07:43:32.465Z,8033
2019-02-17T07:44:02.479Z,8000
2019-02-17T07:44:32.464Z,8263
2019-02-17T07:45:02.493Z,8287
2019-02-17T07:45:32.585Z,8323
2019-02-17T07:46:02.616Z,8213
2019-02-17T07:46:32.643Z,8177
2019-02-17T07:47:02.664Z,8183
2019-02-17T07:47:32.704Z,8380
2019-02-17T07:48:02.741Z,8477
2019-02-17T07:48:32.755Z,8560
2019-02-17T07:49:02.817Z,8473
2019-02-17T07:49:32.775Z,8393
2019-02-17T07:50:02.799Z,8410
2019-02-17T07:50:33.013Z,8440
2019-02-17T07:51:02.928Z,8410
2019-02-17T07:51:32.892Z,8053
2019-02-17T07:52:02.959Z,7980
2019-02-17T07:52:34.218Z,7907
2019-02-17T07:53:03.047Z,7847
2019-02-17T07:53:33.016Z,8040
2019-02-17T07:54:03.101Z,8217
2019-02-17T07:54:33.079Z,8410
2019-02-17T07:55:03.104Z,8277
2019-02-17T07:55:33.135Z,8597
2019-02-17T07:56:03.225Z,9230
2019-02-17T07:56:33.218Z,9847
2019-02-17T07:57:03.287Z,10247
2019-02-17T07:57:33.268Z,10337
2019-02-17T07:58:03.322Z,10303
2019-02-17T07:58:33.329Z,10337
2019-02-17T07:59:03.357Z,10170
2019-02-17T07:59:33.385Z,10050
2019-02-17T08:00:03.591Z,10240
2019-02-17T08:00:33.445Z,9933
2019-02-17T08:01:03.525Z,9700
2019-02-17T08:01:33.589Z,9003
2019-02-17T08:02:03.569Z,8590
2019-02-17T08:02:33.571Z,8403
2019-02-17T08:03:03.636Z,8400
2019-02-17T08:03:33.804Z,8557
2019-02-17T08:04:03.707Z,8760
2019-02-17T08:04:33.828Z,9067
2019-02-17T08:05:03.765Z,9163
2019-02-17T08:05:33.797Z,9150
2019-02-17T08:06:03.839Z,9473
2019-02-17T08:06:34.030Z,10643
2019-02-17T08:07:03.884Z,12040
2019-02-17T08:07:34.009Z,13147
2019-02-17T08:08:03.941Z,13820
2019-02-17T08:08:34.131Z,13227
2019-02-17T08:09:04.017Z,12870
2019-02-17T08:09:34.257Z,12560
2019-02-17T08:10:04.073Z,12567
2019-02-17T08:10:34.126Z,12820
2019-02-17T08:11:04.441Z,12270
2019-02-17T08:11:34.239Z,10587
2019-02-17T08:12:04.211Z,9827
2019-02-17T08:12:34.240Z,9590
2019-02-17T08:13:04.251Z,9483
2019-02-17T08:13:34.305Z,9433
2019-02-17T08:14:04.327Z,9690
2019-02-17T08:14:34.371Z,9670
2019-02-17T08:15:04.395Z,9357
2019-02-17T08:15:34.414Z,9667
2019-02-17T08:16:04.410Z,10220
2019-02-17T08:16:34.522Z,10627
2019-02-17T08:17:04.469Z,11213
2019-02-17T08:17:34.504Z,11887
2019-02-17T08:18:04.634Z,12073
2019-02-17T08:18:34.620Z,12537
2019-02-17T08:19:04.636Z,12830
2019-02-17T08:19:34.690Z,12870
2019-02-17T08:20:04.637Z,12850
2019-02-17T08:20:36.441Z,12670
2019-02-17T08:21:04.731Z,12120
2019-02-17T08:21:34.781Z,11703
2019-02-17T08:22:04.825Z,11187
2019-02-17T08:22:34.859Z,10507
2019-02-17T08:23:04.876Z,10193
2019-02-17T08:23:34.877Z,10237
2019-02-17T08:24:04.891Z,10503
2019-02-17T08:24:34.985Z,10430
2019-02-17T08:25:04.956Z,10230
2019-02-17T08:25:36.185Z,9843
2019-02-17T08:26:05.026Z,9410
2019-02-17T08:26:35.100Z,9337
2019-02-17T08:27:05.134Z,9513
2019-02-17T08:27:35.165Z,9753
2019-02-17T08:28:05.139Z,9760
2019-02-17T08:28:35.201Z,9923
2019-02-17T08:29:05.249Z,10373
2019-02-17T08:29:35.271Z,10780
2019-02-17T08:30:05.286Z,11100
2019-02-17T08:30:35.297Z,11360
2019-02-17T08:31:05.382Z,11537
2019-02-17T08:31:35.439Z,11543
2019-02-17T08:32:05.409Z,11683
2019-02-17T08:32:35.480Z,12107
2019-02-17T08:33:05.464Z,12880
2019-02-17T08:33:35.474Z,14040
2019-02-17T08:34:05.536Z,14457
2019-02-17T08:34:35.584Z,14263
2019-02-17T08:35:05.564Z,13450
2019-02-17T08:35:35.646Z,12840
2019-02-17T08:36:05.708Z,12090
2019-02-17T08:36:35.766Z,12037
2019-02-17T08:37:05.723Z,11707
2019-02-17T08:37:35.765Z,11663
2019-02-17T08:38:05.777Z,11827
2019-02-17T08:38:35.822Z,12727
2019-02-17T08:39:05.898Z,13990
2019-02-17T08:39:35.886Z,15720
2019-02-17T08:40:05.938Z,17143
2019-02-17T08:40:35.926Z,17933
2019-02-17T08:41:05.963Z,18877
2019-02-17T08:41:36.060Z,19330
2019-02-17T08:42:06.090Z,19597
2019-02-17T08:42:36.075Z,19813
2019-02-17T08:43:06.094Z,19487
2019-02-17T08:43:36.142Z,19047
2019-02-17T08:44:06.153Z,19110
2019-02-17T08:44:36.193Z,19333
2019-02-17T08:45:06.198Z,19800
2019-02-17T08:45:36.254Z,19950
2019-02-17T08:46:06.268Z,19907
2019-02-17T08:46:36.347Z,19630
2019-02-17T08:47:06.325Z,19130
2019-02-17T08:47:36.348Z,18707
2019-02-17T08:48:06.454Z,18883
2019-02-17T08:48:36.433Z,19843
2019-02-17T08:49:06.460Z,20573
2019-02-17T08:49:36.555Z,20800
2019-02-17T08:50:06.523Z,20943
2019-02-17T08:50:36.566Z,21120
2019-02-17T08:51:06.665Z,21143
2019-02-17T08:51:36.972Z,21263
2019-02-17T08:52:06.678Z,21223
2019-02-17T08:52:36.644Z,21030
2019-02-17T08:53:06.726Z,21150
2019-02-17T08:53:36.734Z,21283
2019-02-17T08:54:06.787Z,21233
2019-02-17T08:54:36.870Z,21337
2019-02-17T08:55:06.844Z,21557
2019-02-17T08:55:36.891Z,21830
2019-02-17T08:56:06.899Z,22437
2019-02-17T08:56:37.013Z,22013
2019-02-17T08:57:06.941Z,22693
2019-02-17T08:57:38.023Z,23893
2019-02-17T08:58:06.981Z,23753
2019-02-17T08:58:37.079Z,23860
2019-02-17T08:59:07.127Z,24127
2019-02-17T08:59:37.139Z,24557
2019-02-17T09:00:07.147Z,24637
2019-02-17T09:00:37.228Z,24407
2019-02-17T09:01:07.204Z,24040
2019-02-17T09:01:37.316Z,23873
2019-02-17T09:02:07.273Z,22513
2019-02-17T09:02:37.331Z,22363
2019-02-17T09:03:07.338Z,22427
2019-02-17T09:03:37.398Z,23223
2019-02-17T09:04:07.433Z,23637
2019-02-17T09:04:37.406Z,23513
2019-02-17T09:05:07.436Z,23557
2019-02-17T09:05:44.050Z,23483
2019-02-17T09:06:07.527Z,22770
2019-02-17T09:06:37.612Z,21497
2019-02-17T09:07:07.571Z,20030
2019-02-17T09:07:37.624Z,17623
2019-02-17T09:08:07.667Z,16280
2019-02-17T09:08:37.654Z,17800
2019-02-17T09:09:07.687Z,18010
2019-02-17T09:09:37.742Z,19133
2019-02-17T09:10:07.744Z,19653
2019-02-17T09:10:37.759Z,22053
2019-02-17T09:11:07.806Z,23360
2019-02-17T09:11:37.870Z,23270
2019-02-17T09:12:07.843Z,23350
2019-02-17T09:12:37.922Z,23250
2019-02-17T09:13:07.909Z,23133
2019-02-17T09:13:37.949Z,23320
2019-02-17T09:14:07.975Z,23727
2019-02-17T09:14:37.997Z,24587
2019-02-17T09:15:08.068Z,24963
2019-02-17T09:15:38.090Z,25227
2019-02-17T09:16:08.109Z,25133
2019-02-17T09:16:38.194Z,25260
2019-02-17T09:17:08.190Z,25043
2019-02-17T09:17:38.209Z,24847
2019-02-17T09:18:08.224Z,24583
2019-02-17T09:18:38.267Z,24560
2019-02-17T09:19:08.287Z,24613
2019-02-17T09:19:38.324Z,24747
2019-02-17T09:20:08.340Z,24660
2019-02-17T09:20:38.428Z,24650
2019-02-17T09:21:08.450Z,24697
2019-02-17T09:21:38.463Z,24730
2019-02-17T09:22:08.459Z,24970
2019-02-17T09:22:38.578Z,25263
2019-02-17T09:23:08.564Z,25483
2019-02-17T09:23:38.592Z,25407
2019-02-17T09:24:08.580Z,25277
2019-02-17T09:24:38.671Z,25153
2019-02-17T09:25:08.690Z,25467
2019-02-17T09:25:38.673Z,25677
2019-02-17T09:26:08.762Z,25893
2019-02-17T09:26:38.882Z,25857
2019-02-17T09:27:08.851Z,26143
2019-02-17T09:27:38.839Z,26613
2019-02-17T09:28:08.818Z,26660
2019-02-17T09:28:38.920Z,26913
2019-02-17T09:29:08.937Z,26767
2019-02-17T09:29:38.983Z,26530
2019-02-17T09:30:09.052Z,26927
2019-02-17T09:30:39.059Z,27093
2019-02-17T09:31:09.053Z,27193
2019-02-17T09:31:39.145Z,27530
2019-02-17T09:32:15.906Z,27487
2019-02-17T09:32:39.165Z,27570
2019-02-17T09:33:09.176Z,27567
2019-02-17T09:33:39.225Z,26913
2019-02-17T09:34:09.263Z,26157
2019-02-17T09:34:39.280Z,26347
2019-02-17T09:35:09.295Z,26287
2019-02-17T09:35:39.353Z,26107
2019-02-17T09:36:09.428Z,25583
2019-02-17T09:36:39.471Z,26353
2019-02-17T09:37:09.411Z,26520
2019-02-17T09:37:39.497Z,26683
2019-02-17T09:38:09.464Z,27227
2019-02-17T09:38:39.593Z,28043
2019-02-17T09:39:09.563Z,28047
2019-02-17T09:39:39.532Z,28407
2019-02-17T09:40:09.645Z,28383
2019-02-17T09:40:39.655Z,28533
2019-02-17T09:41:09.677Z,28687
2019-02-17T09:41:39.729Z,28767
2019-02-17T09:42:09.758Z,28797
2019-02-17T09:42:39.772Z,28833
2019-02-17T09:43:09.793Z,28850
2019-02-17T09:43:39.846Z,28993
2019-02-17T09:44:09.862Z,29097
2019-02-17T09:44:39.886Z,29370
2019-02-17T09:45:09.912Z,29640
2019-02-17T09:45:39.951Z,29823
2019-02-17T09:46:09.974Z,29793
2019-02-17T09:46:40.048Z,29763
2019-02-17T09:47:10.039Z,29810
2019-02-17T09:47:40.090Z,29767
2019-02-17T09:48:10.111Z,29953
2019-02-17T09:48:40.157Z,30287
2019-02-17T09:49:10.157Z,30907
2019-02-17T09:49:40.238Z,31123
2019-02-17T09:50:10.273Z,31203
2019-02-17T09:50:40.287Z,31357
2019-02-17T09:51:10.297Z,31463
2019-02-17T09:52:10.418Z,31420
2019-02-17T09:52:40.352Z,31590
2019-02-17T09:53:10.434Z,31747
2019-02-17T09:53:40.413Z,31713
2019-02-17T09:54:10.501Z,31657
2019-02-17T09:54:40.481Z,31440
2019-02-17T09:55:10.506Z,31230
2019-02-17T09:55:40.540Z,31150
2019-02-17T09:56:10.613Z,31230
2019-02-17T09:56:40.591Z,31263
2019-02-17T09:57:10.675Z,31583
2019-02-17T09:57:40.664Z,31680
2019-02-17T09:58:11.241Z,31513
2019-02-17T09:58:40.732Z,31367
2019-02-17T09:59:10.749Z,31537
2019-02-17T09:59:40.787Z,31577
2019-02-17T10:00:10.815Z,31893
2019-02-17T10:00:40.860Z,32027
2019-02-17T10:01:10.862Z,32007
2019-02-17T10:01:42.655Z,31843
2019-02-17T10:02:10.988Z,31887
2019-02-17T10:02:40.970Z,31907
2019-02-17T10:03:10.979Z,32193
2019-02-17T10:03:41.059Z,32233
2019-02-17T10:04:11.071Z,32050
2019-02-17T10:04:41.074Z,31500
2019-02-17T10:05:11.110Z,30657
2019-02-17T10:05:41.203Z,30037
2019-02-17T10:06:11.259Z,30290
2019-02-17T10:06:41.325Z,31607
2019-02-17T10:07:11.326Z,31190
2019-02-17T10:07:41.470Z,30960
2019-02-17T10:08:11.322Z,31003
2019-02-17T10:08:41.709Z,30560
2019-02-17T10:09:11.390Z,30147
2019-02-17T10:09:41.462Z,30380
2019-02-17T10:10:11.449Z,29960
2019-02-17T10:10:41.656Z,28883
2019-02-17T10:11:11.515Z,29447
2019-02-17T10:11:42.128Z,30417
2019-02-17T10:12:11.626Z,31343
2019-02-17T10:12:42.158Z,31687
2019-02-17T10:13:11.643Z,30950
2019-02-17T10:13:41.986Z,32043
2019-02-17T10:14:11.660Z,32527
2019-02-17T10:14:41.750Z,32470
2019-02-17T10:15:11.756Z,31713
2019-02-17T10:15:41.804Z,31813
2019-02-17T10:16:11.807Z,32857
2019-02-17T10:16:41.886Z,33047
2019-02-17T10:17:11.923Z,33150
2019-02-17T10:17:41.920Z,33183
2019-02-17T10:18:11.911Z,33290
2019-02-17T10:18:41.956Z,33317
2019-02-17T10:19:11.970Z,33200
2019-02-17T10:19:42.058Z,32993
2019-02-17T10:20:12.035Z,33290
2019-02-17T10:20:42.109Z,33070
2019-02-17T10:21:12.143Z,33097
2019-02-17T10:21:42.140Z,32880
2019-02-17T10:22:12.259Z,33113
2019-02-17T10:22:42.181Z,33063
2019-02-17T10:23:12.250Z,32800
2019-02-17T10:23:42.248Z,33053
2019-02-17T10:24:12.298Z,33097
2019-02-17T10:24:42.323Z,33160
2019-02-17T10:25:12.404Z,32950
2019-02-17T10:25:42.375Z,33143
2019-02-17T10:26:12.449Z,33307
2019-02-17T10:26:42.453Z,33330
2019-02-17T10:27:12.561Z,33323
2019-02-17T10:27:42.491Z,33310
2019-02-17T10:28:12.567Z,33230
2019-02-17T10:28:42.668Z,33243
2019-02-17T10:29:12.610Z,33383
2019-02-17T10:29:42.613Z,33370
2019-02-17T10:30:12.683Z,33330
2019-02-17T10:30:42.722Z,33327
2019-02-17T10:31:12.744Z,33270
2019-02-17T10:31:42.791Z,33280
2019-02-17T10:32:12.859Z,33263
2019-02-17T10:32:42.849Z,33173
2019-02-17T10:33:12.920Z,32867
2019-02-17T10:33:42.928Z,32480
2019-02-17T10:34:12.929Z,32650
2019-02-17T10:34:42.970Z,32870
2019-02-17T10:35:13.006Z,32573
2019-02-17T10:35:43.024Z,32547
2019-02-17T10:36:13.091Z,32803
2019-02-17T10:37:13.243Z,32693
2019-02-17T10:37:43.230Z,32787
2019-02-17T10:38:13.247Z,32883
2019-02-17T10:38:43.328Z,33110
2019-02-17T10:39:13.307Z,33147
2019-02-17T10:39:43.331Z,33283
2019-02-17T10:40:13.374Z,33250
2019-02-17T10:40:43.400Z,33107
2019-02-17T10:41:13.424Z,33163
2019-02-17T10:41:43.421Z,33237
2019-02-17T10:42:13.516Z,33010
2019-02-17T10:42:43.484Z,32777
2019-02-17T10:43:13.510Z,32810
2019-02-17T10:43:43.577Z,32937
2019-02-17T10:44:13.637Z,32987
2019-02-17T10:44:43.634Z,32973
2019-02-17T10:45:13.694Z,32537
2019-02-17T10:45:43.693Z,32220
2019-02-17T10:46:13.696Z,32083
2019-02-17T10:46:43.728Z,32747
2019-02-17T10:47:13.775Z,32883
2019-02-17T10:47:43.798Z,32760
2019-02-17T10:48:13.836Z,32710
2019-02-17T10:48:43.881Z,32647
2019-02-17T10:49:14.909Z,32600
2019-02-17T10:49:43.907Z,32677
2019-02-17T10:50:13.929Z,32490
2019-02-17T10:50:43.971Z,32697
2019-02-17T10:51:14.065Z,32627
2019-02-17T10:51:44.061Z,32713
2019-02-17T10:52:14.067Z,32790
2019-02-17T10:52:44.096Z,33247
2019-02-17T10:53:14.169Z,33643
2019-02-17T10:53:44.195Z,33450
2019-02-17T10:54:14.247Z,33430
2019-02-17T10:54:44.257Z,33320
2019-02-17T10:55:14.275Z,33093
2019-02-17T10:55:44.336Z,33210
2019-02-17T10:56:14.346Z,33167
2019-02-17T10:56:44.392Z,32880
2019-02-17T10:57:14.394Z,32563
2019-02-17T10:57:44.428Z,32600
2019-02-17T10:58:14.487Z,33027
2019-02-17T10:58:44.565Z,33137
2019-02-17T10:59:14.539Z,33160
2019-02-17T10:59:44.562Z,33543
2019-02-17T11:00:14.604Z,33540
2019-02-17T11:00:44.668Z,33320
2019-02-17T11:01:14.671Z,33487
2019-02-17T11:01:44.692Z,33493
2019-02-17T11:02:14.702Z,31933
2019-02-17T11:02:47.302Z,30243
2019-02-17T11:03:14.795Z,31937
2019-02-17T11:03:44.789Z,32707
2019-02-17T11:04:14.891Z,33347
2019-02-17T11:04:44.878Z,34187
2019-02-17T11:05:14.889Z,33683
2019-02-17T11:05:44.955Z,33883
2019-02-17T11:06:15.009Z,34050
2019-02-17T11:06:44.976Z,33943
2019-02-17T11:07:15.021Z,34153
2019-02-17T11:07:45.072Z,34307
2019-02-17T11:08:15.162Z,34633
2019-02-17T11:08:45.195Z,34980
2019-02-17T11:09:15.131Z,35077
2019-02-17T11:09:45.137Z,35080
2019-02-17T11:10:15.223Z,35100
2019-02-17T11:10:45.287Z,35137
2019-02-17T11:11:15.291Z,34523
2019-02-17T11:11:45.302Z,34273
2019-02-17T11:12:15.301Z,34087
2019-02-17T11:12:45.393Z,34133
2019-02-17T11:13:15.424Z,34187
2019-02-17T11:13:45.498Z,34263
2019-02-17T11:14:15.441Z,34127
2019-02-17T11:14:45.544Z,34293
2019-02-17T11:15:15.504Z,34130
2019-02-17T11:15:45.551Z,33143
2019-02-17T11:16:15.577Z,32163
2019-02-17T11:16:45.629Z,32770
2019-02-17T11:17:15.655Z,34083
2019-02-17T11:17:45.679Z,34250
2019-02-17T11:18:15.666Z,34597
2019-02-17T11:18:45.715Z,34390
2019-02-17T11:19:15.777Z,34583
2019-02-17T11:19:45.827Z,34523
2019-02-17T11:20:15.868Z,34920
2019-02-17T11:20:45.858Z,35587
2019-02-17T11:21:15.900Z,35353
2019-02-17T11:21:45.965Z,34220
2019-02-17T11:22:22.866Z,33850
2019-02-17T11:22:45.967Z,33667
2019-02-17T11:23:16.035Z,33957
2019-02-17T11:23:46.110Z,34393
2019-02-17T11:24:16.115Z,33547
2019-02-17T11:24:46.094Z,33573
2019-02-17T11:25:16.142Z,33803
2019-02-17T11:25:46.175Z,34690
2019-02-17T11:26:16.156Z,35167
2019-02-17T11:26:46.236Z,34937
2019-02-17T11:27:16.287Z,34867
2019-02-17T11:27:46.326Z,35010
2019-02-17T11:28:16.348Z,35450
2019-02-17T11:28:46.427Z,35437
2019-02-17T11:29:16.380Z,35053
2019-02-17T11:29:46.410Z,34267
2019-02-17T11:30:16.468Z,34487
2019-02-17T11:30:46.492Z,35283
2019-02-17T11:31:16.524Z,35677
2019-02-17T11:31:46.521Z,35840
2019-02-17T11:32:16.555Z,35467
2019-02-17T11:32:56.871Z,35020
2019-02-17T11:33:16.655Z,34547
2019-02-17T11:33:46.701Z,34633
2019-02-17T11:34:16.712Z,35760
2019-02-17T11:34:46.700Z,35797
2019-02-17T11:35:16.811Z,35700
2019-02-17T11:35:47.032Z,35413
2019-02-17T11:36:16.791Z,36143
2019-02-17T11:36:46.809Z,36070
2019-02-17T11:37:16.867Z,35863
2019-02-17T11:37:47.056Z,35693
2019-02-17T11:38:16.903Z,35430
2019-02-17T11:38:47.044Z,35417
2019-02-17T11:39:16.963Z,33920
2019-02-17T11:39:46.998Z,33517
2019-02-17T11:40:17.021Z,33087
2019-02-17T11:40:47.061Z,33493
2019-02-17T11:41:17.120Z,33923
2019-02-17T11:41:47.163Z,34367
2019-02-17T11:42:17.208Z,34083
2019-02-17T11:42:47.216Z,33787
2019-02-17T11:43:17.270Z,33900
2019-02-17T11:43:47.289Z,33883
2019-02-17T11:44:17.362Z,33340
2019-02-17T11:44:47.375Z,32260
2019-02-17T11:45:17.367Z,31667
2019-02-17T11:45:47.395Z,30357
2019-02-17T11:46:17.455Z,31660
2019-02-17T11:46:47.451Z,32167
2019-02-17T11:47:17.492Z,32303
2019-02-17T11:47:47.556Z,33283
2019-02-17T11:48:17.537Z,33937
2019-02-17T11:48:47.592Z,33410
2019-02-17T11:49:17.631Z,33330
2019-02-17T11:49:47.652Z,33763
2019-02-17T11:50:17.708Z,33987
2019-02-17T11:50:47.738Z,34267
2019-02-17T11:51:17.699Z,33710
2019-02-17T11:51:48.026Z,33820
2019-02-17T11:52:17.777Z,32753
2019-02-17T11:52:48.018Z,32427
2019-02-17T11:53:17.901Z,32380
2019-02-17T11:53:47.912Z,33517
2019-02-17T11:54:17.940Z,33677
2019-02-17T11:54:47.918Z,34940
2019-02-17T11:55:18.004Z,34593
2019-02-17T11:55:48.019Z,34227
2019-02-17T11:56:18.059Z,33917
2019-02-17T11:56:48.082Z,34023
2019-02-17T11:57:18.132Z,34780
2019-02-17T11:57:48.265Z,34670
2019-02-17T11:58:18.193Z,34777
2019-02-17T11:58:48.229Z,34467
2019-02-17T11:59:18.258Z,34080
2019-02-17T11:59:48.272Z,32920
2019-02-17T12:00:18.266Z,32630
2019-02-17T12:00:48.380Z,32317
2019-02-17T12:01:18.395Z,32240
2019-02-17T12:01:48.397Z,32127
2019-02-17T12:02:24.823Z,32583
2019-02-17T12:02:48.515Z,32970
2019-02-17T12:03:18.507Z,32600
2019-02-17T12:03:48.516Z,33297
2019-02-17T12:04:18.511Z,33703
2019-02-17T12:04:48.578Z,34373
2019-02-17T12:05:18.619Z,33600
2019-02-17T12:05:48.657Z,33577
2019-02-17T12:06:18.687Z,33337
2019-02-17T12:06:48.710Z,32727
2019-02-17T12:07:18.741Z,31793
2019-02-17T12:07:48.766Z,31713
2019-02-17T12:08:18.789Z,30310
2019-02-17T12:08:48.848Z,29540
2019-02-17T12:09:18.908Z,29350
2019-02-17T12:09:49.002Z,31093
2019-02-17T12:10:18.916Z,31110
2019-02-17T12:10:48.959Z,31807
2019-02-17T12:11:18.954Z,31453
2019-02-17T12:11:49.051Z,31463
2019-02-17T12:12:19.035Z,31963
2019-02-17T12:12:49.069Z,32207
2019-02-17T12:13:19.104Z,31890
2019-02-17T12:13:49.240Z,31687
2019-02-17T12:14:19.152Z,32070
2019-02-17T12:14:49.207Z,32483
2019-02-17T12:15:19.225Z,32247
2019-02-17T12:15:49.299Z,31247
2019-02-17T12:16:19.307Z,30537
2019-02-17T12:16:49.335Z,31710
2019-02-17T12:17:19.338Z,30637
2019-02-17T12:17:49.354Z,30793
2019-02-17T12:18:19.416Z,30083
2019-02-17T12:18:49.450Z,30350
2019-02-17T12:19:19.460Z,31140
2019-02-17T12:19:49.465Z,30970
2019-02-17T12:20:19.508Z,30313
2019-02-17T12:20:49.521Z,29440
2019-02-17T12:21:19.582Z,28600
2019-02-17T12:21:49.621Z,28800
2019-02-17T12:22:19.616Z,27640
2019-02-17T12:22:49.657Z,26903
2019-02-17T12:23:19.673Z,28387
2019-02-17T12:23:49.786Z,28457
2019-02-17T12:24:19.777Z,27837
2019-02-17T12:24:49.782Z,27800
2019-02-17T12:25:19.824Z,29510
2019-02-17T12:25:49.825Z,30720
2019-02-17T12:26:19.866Z,32160
2019-02-17T12:26:50.029Z,33260
2019-02-17T12:27:19.992Z,32623
2019-02-17T12:27:49.956Z,33577
2019-02-17T12:28:19.992Z,33083
2019-02-17T12:28:50.039Z,32283
2019-02-17T12:29:20.084Z,28547
2019-02-17T12:29:50.129Z,27883
2019-02-17T12:30:20.106Z,28980
2019-02-17T12:30:50.177Z,24477
2019-02-17T12:31:20.193Z,26230
2019-02-17T12:31:50.270Z,24420
2019-02-17T12:32:20.267Z,27860
2019-02-17T12:32:50.259Z,26790
2019-02-17T12:33:21.890Z,27230
2019-02-17T12:33:50.424Z,27283
2019-02-17T12:34:20.406Z,27523
2019-02-17T12:34:50.436Z,27720
2019-02-17T12:35:20.495Z,29713
2019-02-17T12:35:50.496Z,30460
2019-02-17T12:36:20.474Z,29200
2019-02-17T12:36:50.544Z,27327
2019-02-17T12:37:20.575Z,25223
2019-02-17T12:37:50.611Z,23343
2019-02-17T12:38:20.639Z,22460